createdAt,value
2023-02-27T00:01:19.672Z,63.41
2023-02-27T00:03:47.003Z,63.16
2023-02-27T00:06:19.044Z,63.21
2023-02-27T00:08:46.478Z,62.96
2023-02-27T00:11:13.480Z,63.54
2023-02-27T00:13:40.299Z,62.73
2023-02-27T00:16:07.832Z,63.46
2023-02-27T00:18:34.746Z,63.87
2023-02-27T00:21:01.595Z,63.40
2023-02-27T00:23:28.876Z,64.52
2023-02-27T00:25:56.206Z,62.32
2023-02-27T00:28:23.772Z,64.41
2023-02-27T00:30:50.613Z,62.15
2023-02-27T00:33:17.587Z,63.52
2023-02-27T00:35:44.446Z,64.09
2023-02-27T00:38:11.351Z,62.08
2023-02-27T00:40:38.241Z,63.20
2023-02-27T00:43:05.410Z,62.03
2023-02-27T00:45:32.359Z,65.59
2023-02-27T00:47:59.170Z,64.21
2023-02-27T00:50:26.031Z,65.06
2023-02-27T00:52:52.943Z,65.06
2023-02-27T00:55:19.902Z,65.44
2023-02-27T00:57:49.727Z,67.51
2023-02-27T01:00:16.615Z,66.19
2023-02-27T01:02:43.528Z,66.67
2023-02-27T01:05:10.630Z,67.31
2023-02-27T01:07:37.937Z,64.23
2023-02-27T01:10:06.085Z,63.75
2023-02-27T01:12:33.013Z,61.83
2023-02-27T01:14:59.928Z,62.20
2023-02-27T01:17:26.888Z,62.61
2023-02-27T01:19:53.876Z,61.40
2023-02-27T01:22:20.738Z,62.77
2023-02-27T01:24:47.594Z,68.50
2023-02-27T01:27:14.474Z,67.36
2023-02-27T01:29:41.619Z,64.93
2023-02-27T01:32:08.655Z,63.38
2023-02-27T01:34:35.642Z,64.35
2023-02-27T01:37:03.657Z,64.18
2023-02-27T01:39:32.423Z,64.60
2023-02-27T01:42:00.194Z,62.57
2023-02-27T01:44:29.343Z,63.56
2023-02-27T01:46:56.888Z,64.21
2023-02-27T01:49:34.903Z,61.57
2023-02-27T01:52:07.606Z,64.28
2023-02-27T01:54:42.037Z,64.24
2023-02-27T01:57:09.916Z,63.05
2023-02-27T01:59:41.648Z,62.51
2023-02-27T02:02:17.202Z,63.00
2023-02-27T02:04:44.444Z,65.15
2023-02-27T02:07:15.020Z,64.55
2023-02-27T02:09:49.211Z,63.65
2023-02-27T02:12:18.359Z,63.46
2023-02-27T02:14:45.261Z,62.70
2023-02-27T02:17:12.053Z,64.51
2023-02-27T02:20:16.381Z,65.82
2023-02-27T02:22:52.505Z,64.35
2023-02-27T02:25:36.561Z,65.96
2023-02-27T02:28:06.353Z,64.54
2023-02-27T02:30:33.086Z,65.34
2023-02-27T02:33:33.962Z,63.87
2023-02-27T02:36:45.064Z,65.54
2023-02-27T02:39:50.237Z,64.40
2023-02-27T02:42:38.333Z,64.51
2023-02-27T02:45:08.902Z,64.82
2023-02-27T02:48:04.541Z,62.26
2023-02-27T02:50:54.345Z,63.28
2023-02-27T02:53:37.326Z,64.36
2023-02-27T02:56:14.125Z,63.28
2023-02-27T02:59:04.629Z,62.82
2023-02-27T03:01:44.011Z,63.81
2023-02-27T03:04:18.714Z,64.04
2023-02-27T03:06:58.821Z,64.44
2023-02-27T03:09:36.078Z,60.97
2023-02-27T03:12:06.325Z,61.46
2023-02-27T03:14:40.633Z,62.50
2023-02-27T03:17:15.722Z,62.43
2023-02-27T03:19:50.162Z,60.80
2023-02-27T03:22:26.775Z,61.94
2023-02-27T03:24:57.620Z,62.24
2023-02-27T03:27:29.877Z,63.14
2023-02-27T03:30:02.652Z,64.14
2023-02-27T03:32:53.669Z,63.35
2023-02-27T03:35:20.761Z,62.14
2023-02-27T03:38:08.900Z,62.84
2023-02-27T03:40:40.887Z,64.82
2023-02-27T03:43:25.856Z,63.47
2023-02-27T03:46:03.501Z,62.21
2023-02-27T03:48:31.367Z,62.39
2023-02-27T03:51:00.654Z,62.96
2023-02-27T03:53:35.055Z,63.21
2023-02-27T03:56:06.139Z,63.59
2023-02-27T03:58:33.744Z,65.57
2023-02-27T04:01:00.582Z,66.08
2023-02-27T04:03:28.088Z,66.21
2023-02-27T04:05:54.996Z,66.11
2023-02-27T04:08:27.395Z,63.93
2023-02-27T04:11:19.469Z,64.74
2023-02-27T04:13:55.259Z,65.23
2023-02-27T04:16:39.891Z,65.61
2023-02-27T04:19:28.975Z,66.79
2023-02-27T04:22:29.093Z,67.12
2023-02-27T04:25:03.763Z,66.09
2023-02-27T04:27:30.628Z,66.76
2023-02-27T04:30:10.029Z,65.99
2023-02-27T04:32:49.709Z,66.07
2023-02-27T04:35:38.827Z,64.54
2023-02-27T04:38:19.335Z,65.04
2023-02-27T04:41:14.071Z,65.90
2023-02-27T04:43:44.478Z,66.05
2023-02-27T04:46:15.635Z,64.38
2023-02-27T04:48:54.380Z,64.41
2023-02-27T04:51:26.986Z,63.38
2023-02-27T04:54:17.699Z,65.02
2023-02-27T04:56:56.253Z,66.52
2023-02-27T04:59:30.225Z,65.42
2023-02-27T05:02:12.274Z,66.06
2023-02-27T05:04:42.397Z,65.60
2023-02-27T05:07:13.764Z,63.69
2023-02-27T05:09:53.758Z,63.74
2023-02-27T05:12:40.863Z,65.96
2023-02-27T05:15:22.238Z,64.27
2023-02-27T05:18:12.054Z,66.57
2023-02-27T05:20:56.089Z,66.00
2023-02-27T05:23:43.802Z,63.48
2023-02-27T05:26:19.934Z,60.94
2023-02-27T05:29:10.471Z,60.88
2023-02-27T05:31:55.796Z,61.63
2023-02-27T05:34:59.716Z,59.92
2023-02-27T05:37:37.281Z,58.85
2023-02-27T05:40:08.930Z,60.30
2023-02-27T05:42:42.029Z,64.51
2023-02-27T05:45:14.356Z,67.06
2023-02-27T05:47:46.401Z,66.49
2023-02-27T05:50:17.918Z,68.03
2023-02-27T05:52:46.682Z,68.42
2023-02-27T05:55:21.683Z,66.48
2023-02-27T05:57:57.394Z,64.39
2023-02-27T06:00:33.278Z,66.85
2023-02-27T06:03:00.207Z,63.20
2023-02-27T06:05:28.216Z,65.56
2023-02-27T06:07:57.537Z,65.91
2023-02-27T06:10:24.877Z,66.35
2023-02-27T06:12:51.785Z,67.41
2023-02-27T06:15:19.756Z,67.27
2023-02-27T06:17:46.754Z,67.37
2023-02-27T06:20:14.179Z,66.05
2023-02-27T06:22:41.247Z,65.20
2023-02-27T06:25:08.455Z,66.85
2023-02-27T06:27:35.434Z,64.57
2023-02-27T06:30:02.394Z,62.92
2023-02-27T06:32:29.269Z,65.17
2023-02-27T06:34:56.179Z,63.67
2023-02-27T06:37:23.627Z,64.25
2023-02-27T06:39:50.654Z,64.99
2023-02-27T06:42:17.999Z,66.36
2023-02-27T06:44:45.007Z,66.07
2023-02-27T06:47:11.968Z,65.54
2023-02-27T06:49:38.952Z,65.88
2023-02-27T06:52:06.419Z,63.09
2023-02-27T06:54:34.228Z,63.87
2023-02-27T06:57:01.594Z,64.50
2023-02-27T06:59:28.564Z,63.05
2023-02-27T07:01:55.536Z,64.47
2023-02-27T07:04:22.502Z,68.13
2023-02-27T07:07:33.799Z,67.07
2023-02-27T07:09:36.500Z,68.13
2023-02-27T07:12:07.082Z,66.03
2023-02-27T07:14:34.395Z,67.66
2023-02-27T07:17:04.663Z,66.29
2023-02-27T07:19:33.841Z,66.42
2023-02-27T07:22:00.706Z,64.73
2023-02-27T07:24:27.621Z,64.83
2023-02-27T07:26:54.624Z,64.30
2023-02-27T07:29:21.653Z,62.46
2023-02-27T07:31:48.586Z,61.38
2023-02-27T07:34:15.973Z,60.91
2023-02-27T07:36:43.626Z,59.96
2023-02-27T07:39:12.674Z,60.72
2023-02-27T07:41:39.670Z,61.26
2023-02-27T07:44:10.518Z,61.30
2023-02-27T07:46:37.457Z,60.91
2023-02-27T07:49:04.331Z,61.52
2023-02-27T07:51:31.601Z,59.34
2023-02-27T07:53:59.070Z,59.56
2023-02-27T07:56:29.123Z,58.28
2023-02-27T07:58:56.901Z,56.93
2023-02-27T08:01:26.318Z,57.03
2023-02-27T08:03:53.259Z,57.77
2023-02-27T08:06:20.278Z,57.46
2023-02-27T08:08:47.375Z,58.14
2023-02-27T08:11:15.782Z,56.31
2023-02-27T08:13:59.600Z,57.95
2023-02-27T08:16:27.768Z,56.44
2023-02-27T08:18:55.289Z,56.00
2023-02-27T08:21:22.293Z,56.82
2023-02-27T08:23:49.561Z,58.31
2023-02-27T08:26:16.778Z,59.29
2023-02-27T08:28:43.776Z,58.50
2023-02-27T08:31:10.911Z,58.05
2023-02-27T08:33:37.932Z,58.05
2023-02-27T08:36:05.931Z,58.77
2023-02-27T08:38:33.075Z,57.42
2023-02-27T08:41:00.117Z,57.62
2023-02-27T08:43:27.076Z,54.77
2023-02-27T08:45:54.272Z,56.18
2023-02-27T08:48:21.419Z,55.32
2023-02-27T08:50:50.585Z,55.21
2023-02-27T08:53:17.624Z,56.14
2023-02-27T08:55:47.032Z,55.46
2023-02-27T08:58:14.096Z,55.65
2023-02-27T09:00:43.131Z,54.95
2023-02-27T09:03:10.059Z,54.33
2023-02-27T09:05:37.833Z,53.84
2023-02-27T09:08:05.484Z,54.55
2023-02-27T09:10:33.296Z,53.01
2023-02-27T09:13:00.804Z,51.47
2023-02-27T09:15:27.793Z,52.74
2023-02-27T09:17:56.751Z,52.60
2023-02-27T09:20:23.820Z,51.45
2023-02-27T09:22:50.924Z,53.86
2023-02-27T09:25:18.001Z,52.86
2023-02-27T09:27:45.015Z,53.48
2023-02-27T09:30:13.236Z,53.38
2023-02-27T09:32:40.248Z,53.41
2023-02-27T09:35:07.850Z,54.61
2023-02-27T09:37:35.180Z,53.86
2023-02-27T09:40:04.410Z,52.64
2023-02-27T09:42:42.330Z,50.42
2023-02-27T09:45:18.397Z,51.20
2023-02-27T09:47:50.922Z,49.93
2023-02-27T09:50:40.922Z,51.76
2023-02-27T09:53:14.695Z,51.53
2023-02-27T09:55:43.842Z,51.46
2023-02-27T09:58:51.379Z,52.09
2023-02-27T10:01:31.774Z,51.62
2023-02-27T10:04:18.819Z,51.71
2023-02-27T10:07:08.043Z,52.60
2023-02-27T10:10:08.398Z,51.13
2023-02-27T10:12:47.391Z,48.91
2023-02-27T10:15:41.199Z,48.96
2023-02-27T10:18:26.119Z,48.51
2023-02-27T10:20:59.742Z,50.40
2023-02-27T10:23:43.735Z,50.34
2023-02-27T10:26:33.469Z,50.19
2023-02-27T10:29:16.411Z,49.14
2023-02-27T10:31:46.656Z,47.37
2023-02-27T10:34:18.653Z,46.94
2023-02-27T10:36:47.103Z,47.14
2023-02-27T10:39:20.609Z,48.62
2023-02-27T10:41:51.481Z,47.51
2023-02-27T10:44:21.892Z,47.37
2023-02-27T10:46:51.446Z,46.49
2023-02-27T10:49:24.903Z,46.28
2023-02-27T10:52:18.430Z,43.45
2023-02-27T10:54:49.141Z,43.99
2023-02-27T10:57:26.924Z,42.41
2023-02-27T11:00:01.893Z,43.90
2023-02-27T11:02:42.626Z,45.02
2023-02-27T11:05:40.084Z,45.41
2023-02-27T11:08:24.865Z,45.13
2023-02-27T11:11:05.923Z,44.52
2023-02-27T11:13:38.768Z,44.60
2023-02-27T11:16:18.287Z,43.64
2023-02-27T11:18:48.097Z,42.63
2023-02-27T11:21:27.633Z,41.91
2023-02-27T11:24:01.353Z,40.24
2023-02-27T11:26:33.725Z,42.22
2023-02-27T11:29:07.341Z,40.82
2023-02-27T11:31:39.511Z,38.44
2023-02-27T11:34:08.560Z,39.04
2023-02-27T11:36:42.109Z,39.49
2023-02-27T11:39:25.964Z,37.92
2023-02-27T11:41:55.127Z,38.94
2023-02-27T11:44:27.426Z,38.80
2023-02-27T11:47:20.608Z,38.80
2023-02-27T11:50:26.085Z,38.19
2023-02-27T11:53:13.305Z,38.69
2023-02-27T11:55:42.750Z,39.37
2023-02-27T11:58:17.547Z,41.24
2023-02-27T12:00:51.250Z,42.33
2023-02-27T12:03:23.189Z,41.98
2023-02-27T12:06:00.280Z,41.51
2023-02-27T12:08:32.808Z,41.08
2023-02-27T12:11:15.135Z,40.06
2023-02-27T12:13:48.028Z,39.11
2023-02-27T12:16:21.936Z,39.41
2023-02-27T12:18:53.131Z,39.45
2023-02-27T12:21:24.629Z,39.00
2023-02-27T12:23:56.043Z,38.85
2023-02-27T12:26:42.660Z,37.51
2023-02-27T12:29:46.949Z,40.20
2023-02-27T12:32:38.249Z,40.09
2023-02-27T12:35:19.726Z,40.46
2023-02-27T12:37:46.925Z,40.27
2023-02-27T12:40:18.951Z,41.10
2023-02-27T12:43:21.353Z,39.85
2023-02-27T12:46:21.453Z,39.66
2023-02-27T12:48:57.068Z,39.88
2023-02-27T12:51:33.594Z,39.78
2023-02-27T12:54:19.486Z,41.16
2023-02-27T12:57:07.338Z,41.33
2023-02-27T12:59:56.413Z,40.71
2023-02-27T13:02:34.892Z,42.25
2023-02-27T13:05:13.536Z,41.22
2023-02-27T13:08:07.532Z,42.06
2023-02-27T13:10:37.517Z,38.63
2023-02-27T13:13:23.091Z,38.95
2023-02-27T13:16:19.806Z,40.76
2023-02-27T13:18:52.687Z,40.81
2023-02-27T13:21:29.211Z,40.43
2023-02-27T13:24:24.933Z,38.88
2023-02-27T13:27:00.894Z,40.63
2023-02-27T13:29:41.197Z,40.25
2023-02-27T13:32:41.321Z,41.36
2023-02-27T13:35:41.069Z,41.69
2023-02-27T13:38:34.685Z,40.78
2023-02-27T13:41:27.352Z,41.61
2023-02-27T13:43:56.230Z,42.12
2023-02-27T13:46:26.943Z,41.48
2023-02-27T13:49:06.094Z,40.85
2023-02-27T13:51:35.875Z,40.37
2023-02-27T13:54:17.656Z,41.15
2023-02-27T13:57:05.565Z,40.79
2023-02-27T13:59:39.962Z,40.27
2023-02-27T14:02:13.105Z,41.22
2023-02-27T14:04:45.986Z,39.77
2023-02-27T14:07:20.975Z,39.83
2023-02-27T14:09:51.282Z,41.32
2023-02-27T14:12:46.333Z,42.35
2023-02-27T14:15:22.568Z,40.83
2023-02-27T14:18:05.762Z,41.12
2023-02-27T14:20:41.380Z,41.08
2023-02-27T14:23:17.646Z,42.00
2023-02-27T14:25:53.596Z,42.24
2023-02-27T14:28:34.754Z,41.46
2023-02-27T14:31:09.019Z,41.66
2023-02-27T14:33:46.605Z,41.13
2023-02-27T14:36:21.760Z,40.58
2023-02-27T14:38:50.799Z,41.10
2023-02-27T14:41:27.521Z,42.82
2023-02-27T14:43:57.795Z,42.83
2023-02-27T14:46:32.835Z,42.19
2023-02-27T14:49:06.320Z,40.85
2023-02-27T14:51:36.240Z,40.63
2023-02-27T14:54:09.377Z,41.57
2023-02-27T14:56:36.510Z,40.74
2023-02-27T14:59:14.903Z,40.74
2023-02-27T15:01:42.170Z,40.02
2023-02-27T15:04:20.520Z,40.74
2023-02-27T15:06:50.892Z,40.08
2023-02-27T15:09:34.573Z,39.87
2023-02-27T15:12:04.484Z,39.80
2023-02-27T15:14:38.629Z,41.58
2023-02-27T15:17:20.116Z,42.41
2023-02-27T15:19:58.716Z,42.83
2023-02-27T15:22:39.148Z,43.16
2023-02-27T15:25:08.401Z,43.77
2023-02-27T15:27:37.760Z,42.89
2023-02-27T15:30:05.520Z,41.97
2023-02-27T15:32:43.316Z,42.29
2023-02-27T15:35:19.645Z,42.04
2023-02-27T15:37:54.226Z,42.38
2023-02-27T15:40:30.227Z,42.48
2023-02-27T15:42:58.550Z,42.78
2023-02-27T15:45:36.269Z,43.10
2023-02-27T15:48:04.817Z,43.23
2023-02-27T15:50:36.416Z,43.63
2023-02-27T15:53:19.309Z,44.58
2023-02-27T15:56:09.768Z,43.54
2023-02-27T15:58:45.562Z,44.29
2023-02-27T16:01:24.874Z,43.18
2023-02-27T16:03:54.610Z,43.17
2023-02-27T16:06:29.041Z,43.46
2023-02-27T16:09:05.215Z,42.19
2023-02-27T16:11:34.999Z,41.54
2023-02-27T16:14:02.599Z,41.80
2023-02-27T16:16:56.508Z,43.34
2023-02-27T16:19:31.813Z,42.39
2023-02-27T16:22:19.759Z,42.49
2023-02-27T16:24:47.696Z,43.58
2023-02-27T16:27:29.729Z,43.97
2023-02-27T16:30:03.049Z,42.95
2023-02-27T16:32:39.855Z,42.74
2023-02-27T16:35:15.787Z,42.98
2023-02-27T16:37:45.207Z,42.54
2023-02-27T16:40:17.815Z,44.60
2023-02-27T16:42:49.014Z,44.06
2023-02-27T16:45:19.332Z,44.61
2023-02-27T16:47:49.832Z,42.94
2023-02-27T16:50:24.546Z,43.50
2023-02-27T16:52:53.568Z,42.95
2023-02-27T16:55:20.861Z,43.09
2023-02-27T16:57:47.834Z,42.42
2023-02-27T17:00:16.608Z,42.60
2023-02-27T17:02:43.550Z,42.80
2023-02-27T17:05:13.339Z,42.75
2023-02-27T17:07:40.068Z,43.06
2023-02-27T17:10:07.172Z,43.42
2023-02-27T17:12:34.593Z,43.65
2023-02-27T17:15:01.716Z,43.52
2023-02-27T17:17:29.162Z,43.36
2023-02-27T17:19:57.409Z,43.60
2023-02-27T17:22:24.407Z,43.49
2023-02-27T17:24:53.473Z,44.33
2023-02-27T17:27:20.447Z,44.04
2023-02-27T17:29:47.390Z,45.37
2023-02-27T17:32:14.563Z,45.02
2023-02-27T17:34:41.615Z,45.03
2023-02-27T17:37:08.674Z,45.40
2023-02-27T17:39:35.855Z,45.94
2023-02-27T17:42:03.044Z,45.55
2023-02-27T17:44:30.183Z,44.87
2023-02-27T17:46:57.179Z,44.81
2023-02-27T17:49:24.080Z,44.55
2023-02-27T17:51:51.037Z,43.17
2023-02-27T17:54:17.962Z,42.86
2023-02-27T17:56:44.978Z,44.19
2023-02-27T17:59:12.013Z,45.21
2023-02-27T18:01:39.428Z,43.56
2023-02-27T18:04:11.218Z,43.31
2023-02-27T18:06:38.906Z,43.33
2023-02-27T18:09:06.172Z,43.56
2023-02-27T18:11:33.236Z,43.45
2023-02-27T18:14:00.613Z,43.27
2023-02-27T18:16:27.920Z,43.01
2023-02-27T18:18:55.217Z,43.71
2023-02-27T18:21:24.460Z,44.29
2023-02-27T18:23:52.485Z,43.84
2023-02-27T18:26:32.798Z,43.53
2023-02-27T18:29:05.847Z,44.52
2023-02-27T18:31:36.606Z,44.48
2023-02-27T18:34:03.865Z,44.85
2023-02-27T18:36:31.581Z,45.46
2023-02-27T18:38:59.078Z,44.64
2023-02-27T18:41:26.196Z,44.36
2023-02-27T18:43:53.425Z,44.57
2023-02-27T18:46:20.634Z,45.13
2023-02-27T18:48:47.652Z,46.64
2023-02-27T18:51:16.414Z,46.55
2023-02-27T18:53:46.238Z,48.14
2023-02-27T18:56:14.170Z,47.62
2023-02-27T18:58:41.379Z,47.55
2023-02-27T19:01:08.591Z,46.05
2023-02-27T19:03:36.274Z,46.35
2023-02-27T19:06:03.671Z,46.50
2023-02-27T19:08:30.666Z,46.38
2023-02-27T19:10:58.522Z,45.58
2023-02-27T19:13:26.766Z,45.36
2023-02-27T19:15:54.203Z,45.51
2023-02-27T19:18:21.434Z,46.13
2023-02-27T19:20:48.499Z,45.64
2023-02-27T19:23:15.462Z,45.75
2023-02-27T19:25:42.974Z,44.42
2023-02-27T19:28:11.753Z,45.18
2023-02-27T19:30:39.459Z,45.78
2023-02-27T19:33:06.620Z,45.24
2023-02-27T19:35:33.655Z,44.69
2023-02-27T19:38:00.571Z,44.57
2023-02-27T19:40:28.357Z,44.71
2023-02-27T19:42:55.738Z,45.02
2023-02-27T19:45:23.506Z,45.50
2023-02-27T19:47:50.473Z,45.05
2023-02-27T19:50:17.866Z,45.49
2023-02-27T19:52:44.780Z,45.29
2023-02-27T19:55:11.857Z,45.40
2023-02-27T19:57:38.958Z,44.94
2023-02-27T20:00:07.743Z,45.29
2023-02-27T20:02:34.660Z,46.12
2023-02-27T20:05:03.305Z,46.91
2023-02-27T20:07:32.195Z,47.89
2023-02-27T20:09:59.136Z,46.68
2023-02-27T20:12:26.237Z,47.34
2023-02-27T20:14:53.200Z,47.22
2023-02-27T20:17:20.058Z,47.91
2023-02-27T20:19:47.248Z,47.55
2023-02-27T20:22:15.820Z,48.54
2023-02-27T20:24:44.885Z,50.21
2023-02-27T20:27:12.307Z,50.88
2023-02-27T20:29:40.606Z,48.95
2023-02-27T20:32:08.680Z,50.89
2023-02-27T20:34:35.646Z,49.57
2023-02-27T20:37:03.362Z,49.07
2023-02-27T20:39:30.276Z,48.75
2023-02-27T20:41:57.235Z,48.02
2023-02-27T20:44:24.166Z,48.65
2023-02-27T20:46:51.172Z,48.26
2023-02-27T20:49:18.515Z,48.18
2023-02-27T20:51:45.510Z,48.67
2023-02-27T20:54:20.179Z,50.02
2023-02-27T20:56:51.978Z,51.12
2023-02-27T20:59:20.845Z,50.75
2023-02-27T21:01:51.736Z,52.15
2023-02-27T21:04:42.773Z,50.53
2023-02-27T21:07:11.783Z,49.80
2023-02-27T21:09:39.217Z,51.07
2023-02-27T21:12:06.870Z,50.35
2023-02-27T21:14:34.409Z,51.76
2023-02-27T21:17:01.511Z,50.31
2023-02-27T21:19:28.619Z,49.88
2023-02-27T21:21:56.141Z,49.92
2023-02-27T21:24:23.364Z,49.86
2023-02-27T21:26:50.427Z,51.82
2023-02-27T21:29:20.171Z,51.82
2023-02-27T21:31:49.157Z,52.77
2023-02-27T21:34:22.154Z,51.46
2023-02-27T21:36:50.105Z,51.07
2023-02-27T21:39:26.176Z,50.14
2023-02-27T21:41:53.480Z,50.86
2023-02-27T21:44:22.004Z,50.29
2023-02-27T21:46:48.925Z,50.67
2023-02-27T21:49:21.197Z,51.00
2023-02-27T21:51:48.442Z,49.92
2023-02-27T21:54:16.906Z,51.57
2023-02-27T21:56:44.971Z,50.80
2023-02-27T21:59:12.311Z,50.16
2023-02-27T22:01:39.726Z,52.08
2023-02-27T22:04:07.578Z,52.13
2023-02-27T22:06:35.311Z,52.29
2023-02-27T22:09:05.165Z,53.28
2023-02-27T22:11:32.335Z,53.25
2023-02-27T22:13:59.219Z,53.16
2023-02-27T22:16:26.173Z,53.53
2023-02-27T22:18:53.214Z,52.91
2023-02-27T22:21:22.828Z,54.36
2023-02-27T22:23:50.619Z,53.12
2023-02-27T22:26:24.353Z,51.88
2023-02-27T22:28:55.558Z,51.24
2023-02-27T22:31:25.304Z,51.74
2023-02-27T22:33:53.161Z,51.79
2023-02-27T22:36:29.391Z,53.30
2023-02-27T22:38:56.772Z,52.27
2023-02-27T22:41:35.818Z,51.94
2023-02-27T22:44:03.858Z,53.45
2023-02-27T22:46:45.264Z,53.25
2023-02-27T22:49:15.264Z,54.48
2023-02-27T22:51:42.700Z,54.54
2023-02-27T22:54:11.749Z,54.85
2023-02-27T22:56:38.776Z,54.47
2023-02-27T22:59:07.350Z,55.68
2023-02-27T23:01:36.660Z,55.52
2023-02-27T23:04:08.684Z,54.77
2023-02-27T23:06:39.013Z,54.29
2023-02-27T23:09:08.796Z,54.76
2023-02-27T23:11:35.598Z,57.52
2023-02-27T23:14:02.673Z,57.36
2023-02-27T23:16:29.705Z,57.46
2023-02-27T23:18:59.282Z,59.43
2023-02-27T23:21:35.116Z,62.29
2023-02-27T23:24:09.932Z,60.68
2023-02-27T23:26:41.853Z,60.04
2023-02-27T23:29:10.030Z,62.40
2023-02-27T23:31:38.162Z,62.04
2023-02-27T23:34:06.360Z,63.11
2023-02-27T23:36:35.358Z,62.75
2023-02-27T23:39:03.431Z,61.88
2023-02-27T23:41:31.290Z,60.89
2023-02-27T23:44:17.003Z,60.67
2023-02-27T23:46:43.864Z,59.68
2023-02-27T23:49:11.784Z,60.07
2023-02-27T23:51:38.756Z,61.59
2023-02-27T23:54:05.964Z,60.28
2023-02-27T23:56:33.193Z,60.45
2023-02-27T23:59:02.681Z,60.17
